sensor_id;sensor_type;location;lat;lon;timestamp;temperature;humidity
11491;DHT22;5802;52.832;4.758;2023-07-08T00:00:40;25.70;49.00
11491;DHT22;5802;52.832;4.758;2023-07-08T00:03:07;25.70;48.90
11491;DHT22;5802;52.832;4.758;2023-07-08T00:05:33;25.70;48.90
11491;DHT22;5802;52.832;4.758;2023-07-08T00:08:00;25.70;48.80
11491;DHT22;5802;52.832;4.758;2023-07-08T00:10:28;25.70;48.90
11491;DHT22;5802;52.832;4.758;2023-07-08T00:12:57;25.70;48.80
11491;DHT22;5802;52.832;4.758;2023-07-08T00:15:25;25.70;48.80
11491;DHT22;5802;52.832;4.758;2023-07-08T00:17:53;25.70;48.90
11491;DHT22;5802;52.832;4.758;2023-07-08T00:20:22;25.70;48.90
11491;DHT22;5802;52.832;4.758;2023-07-08T00:22:49;25.70;49.00
11491;DHT22;5802;52.832;4.758;2023-07-08T00:25:16;25.60;48.90
11491;DHT22;5802;52.832;4.758;2023-07-08T00:27:44;25.60;49.00
11491;DHT22;5802;52.832;4.758;2023-07-08T00:30:18;25.60;49.00
11491;DHT22;5802;52.832;4.758;2023-07-08T00:32:45;25.60;49.00
11491;DHT22;5802;52.832;4.758;2023-07-08T00:35:12;25.60;49.00
11491;DHT22;5802;52.832;4.758;2023-07-08T00:37:39;25.60;49.70
11491;DHT22;5802;52.832;4.758;2023-07-08T00:40:14;25.60;49.00
11491;DHT22;5802;52.832;4.758;2023-07-08T00:42:42;25.60;49.00
11491;DHT22;5802;52.832;4.758;2023-07-08T00:45:18;25.50;49.00
11491;DHT22;5802;52.832;4.758;2023-07-08T00:47:47;25.50;49.10
11491;DHT22;5802;52.832;4.758;2023-07-08T00:50:15;25.50;49.10
11491;DHT22;5802;52.832;4.758;2023-07-08T00:52:42;25.50;49.00
11491;DHT22;5802;52.832;4.758;2023-07-08T00:55:10;25.50;49.10
11491;DHT22;5802;52.832;4.758;2023-07-08T00:57:40;25.50;49.00
11491;DHT22;5802;52.832;4.758;2023-07-08T01:00:11;25.50;49.00
11491;DHT22;5802;52.832;4.758;2023-07-08T01:02:45;25.50;49.00
11491;DHT22;5802;52.832;4.758;2023-07-08T01:05:15;25.50;49.00
11491;DHT22;5802;52.832;4.758;2023-07-08T01:07:46;25.40;49.60
11491;DHT22;5802;52.832;4.758;2023-07-08T01:10:19;25.40;48.90
11491;DHT22;5802;52.832;4.758;2023-07-08T01:12:51;25.50;49.10
11491;DHT22;5802;52.832;4.758;2023-07-08T01:15:21;25.40;48.90
11491;DHT22;5802;52.832;4.758;2023-07-08T01:17:52;25.40;49.00
11491;DHT22;5802;52.832;4.758;2023-07-08T01:20:19;25.50;49.20
11491;DHT22;5802;52.832;4.758;2023-07-08T01:22:47;25.40;49.00
11491;DHT22;5802;52.832;4.758;2023-07-08T01:25:14;25.40;49.00
11491;DHT22;5802;52.832;4.758;2023-07-08T01:27:47;25.40;49.00
11491;DHT22;5802;52.832;4.758;2023-07-08T01:30:15;25.40;49.00
11491;DHT22;5802;52.832;4.758;2023-07-08T01:32:47;25.40;49.00
11491;DHT22;5802;52.832;4.758;2023-07-08T01:35:15;25.40;49.00
11491;DHT22;5802;52.832;4.758;2023-07-08T01:37:44;25.40;49.00
11491;DHT22;5802;52.832;4.758;2023-07-08T01:40:33;25.40;49.10
11491;DHT22;5802;52.832;4.758;2023-07-08T01:43:01;25.40;49.00
11491;DHT22;5802;52.832;4.758;2023-07-08T01:45:32;25.30;49.00
11491;DHT22;5802;52.832;4.758;2023-07-08T01:48:03;25.30;49.00
11491;DHT22;5802;52.832;4.758;2023-07-08T01:50:32;25.30;49.00
11491;DHT22;5802;52.832;4.758;2023-07-08T01:53:04;25.30;49.00
11491;DHT22;5802;52.832;4.758;2023-07-08T01:55:34;25.30;49.00
11491;DHT22;5802;52.832;4.758;2023-07-08T01:58:02;25.30;49.00
11491;DHT22;5802;52.832;4.758;2023-07-08T02:00:29;25.30;49.10
11491;DHT22;5802;52.832;4.758;2023-07-08T02:02:56;25.30;49.10
11491;DHT22;5802;52.832;4.758;2023-07-08T02:05:23;25.30;49.20
11491;DHT22;5802;52.832;4.758;2023-07-08T02:07:49;25.20;49.20
11491;DHT22;5802;52.832;4.758;2023-07-08T02:10:16;25.20;49.90
11491;DHT22;5802;52.832;4.758;2023-07-08T02:12:44;25.20;49.30
11491;DHT22;5802;52.832;4.758;2023-07-08T02:15:11;25.20;49.40
11491;DHT22;5802;52.832;4.758;2023-07-08T02:17:38;25.20;49.40
11491;DHT22;5802;52.832;4.758;2023-07-08T02:20:05;25.20;49.50
11491;DHT22;5802;52.832;4.758;2023-07-08T02:22:33;25.10;49.60
11491;DHT22;5802;52.832;4.758;2023-07-08T02:25:00;25.10;49.40
11491;DHT22;5802;52.832;4.758;2023-07-08T02:27:27;25.10;49.40
11491;DHT22;5802;52.832;4.758;2023-07-08T02:29:55;25.10;49.40
11491;DHT22;5802;52.832;4.758;2023-07-08T02:32:21;25.10;49.40
11491;DHT22;5802;52.832;4.758;2023-07-08T02:34:48;25.10;49.40
11491;DHT22;5802;52.832;4.758;2023-07-08T02:37:17;25.10;49.40
11491;DHT22;5802;52.832;4.758;2023-07-08T02:39:44;25.10;49.40
11491;DHT22;5802;52.832;4.758;2023-07-08T02:42:10;25.10;49.40
11491;DHT22;5802;52.832;4.758;2023-07-08T02:44:37;25.10;49.60
11491;DHT22;5802;52.832;4.758;2023-07-08T02:47:05;25.10;49.40
11491;DHT22;5802;52.832;4.758;2023-07-08T02:49:32;25.10;49.40
11491;DHT22;5802;52.832;4.758;2023-07-08T02:51:59;25.00;49.50
11491;DHT22;5802;52.832;4.758;2023-07-08T02:54:25;25.10;49.40
11491;DHT22;5802;52.832;4.758;2023-07-08T02:56:52;25.00;49.40
11491;DHT22;5802;52.832;4.758;2023-07-08T02:59:19;25.00;49.40
11491;DHT22;5802;52.832;4.758;2023-07-08T03:01:46;25.00;49.40
11491;DHT22;5802;52.832;4.758;2023-07-08T03:04:14;25.00;49.40
11491;DHT22;5802;52.832;4.758;2023-07-08T03:06:41;25.00;49.40
11491;DHT22;5802;52.832;4.758;2023-07-08T03:09:08;25.00;49.40
11491;DHT22;5802;52.832;4.758;2023-07-08T03:11:35;25.00;49.40
11491;DHT22;5802;52.832;4.758;2023-07-08T03:14:02;25.00;49.40
11491;DHT22;5802;52.832;4.758;2023-07-08T03:16:29;25.00;49.40
11491;DHT22;5802;52.832;4.758;2023-07-08T03:18:56;25.00;49.40
11491;DHT22;5802;52.832;4.758;2023-07-08T03:21:24;25.00;49.40
11491;DHT22;5802;52.832;4.758;2023-07-08T03:23:52;25.00;49.40
11491;DHT22;5802;52.832;4.758;2023-07-08T03:26:20;24.90;49.30
11491;DHT22;5802;52.832;4.758;2023-07-08T03:28:48;24.90;49.40
11491;DHT22;5802;52.832;4.758;2023-07-08T03:31:16;24.90;49.40
11491;DHT22;5802;52.832;4.758;2023-07-08T03:33:43;24.90;49.40
11491;DHT22;5802;52.832;4.758;2023-07-08T03:36:13;24.90;49.40
11491;DHT22;5802;52.832;4.758;2023-07-08T03:38:51;24.90;49.40
11491;DHT22;5802;52.832;4.758;2023-07-08T03:41:18;24.90;49.50
11491;DHT22;5802;52.832;4.758;2023-07-08T03:43:45;24.90;49.50
11491;DHT22;5802;52.832;4.758;2023-07-08T03:46:12;24.90;49.50
11491;DHT22;5802;52.832;4.758;2023-07-08T03:48:39;24.80;49.40
11491;DHT22;5802;52.832;4.758;2023-07-08T03:51:09;24.80;49.40
11491;DHT22;5802;52.832;4.758;2023-07-08T03:53:36;24.80;49.40
11491;DHT22;5802;52.832;4.758;2023-07-08T03:56:04;24.80;49.40
11491;DHT22;5802;52.832;4.758;2023-07-08T03:58:31;24.80;49.40
11491;DHT22;5802;52.832;4.758;2023-07-08T04:00:58;24.80;49.50
11491;DHT22;5802;52.832;4.758;2023-07-08T04:03:24;24.80;49.80
11491;DHT22;5802;52.832;4.758;2023-07-08T04:05:51;24.80;49.40
11491;DHT22;5802;52.832;4.758;2023-07-08T04:08:18;24.80;49.50
11491;DHT22;5802;52.832;4.758;2023-07-08T04:10:44;24.80;49.50
11491;DHT22;5802;52.832;4.758;2023-07-08T04:13:12;24.80;49.50
11491;DHT22;5802;52.832;4.758;2023-07-08T04:15:39;24.70;49.60
11491;DHT22;5802;52.832;4.758;2023-07-08T04:18:06;24.70;49.60
11491;DHT22;5802;52.832;4.758;2023-07-08T04:20:32;24.70;49.60
11491;DHT22;5802;52.832;4.758;2023-07-08T04:22:59;24.70;49.70
11491;DHT22;5802;52.832;4.758;2023-07-08T04:25:26;24.70;49.70
11491;DHT22;5802;52.832;4.758;2023-07-08T04:27:52;24.70;49.70
11491;DHT22;5802;52.832;4.758;2023-07-08T04:30:23;24.70;49.80
11491;DHT22;5802;52.832;4.758;2023-07-08T04:32:50;24.70;49.90
11491;DHT22;5802;52.832;4.758;2023-07-08T04:35:17;24.60;49.90
11491;DHT22;5802;52.832;4.758;2023-07-08T04:37:47;24.60;50.00
11491;DHT22;5802;52.832;4.758;2023-07-08T04:40:18;24.60;50.00
11491;DHT22;5802;52.832;4.758;2023-07-08T04:42:45;24.60;50.10
11491;DHT22;5802;52.832;4.758;2023-07-08T04:45:14;24.50;50.10
11491;DHT22;5802;52.832;4.758;2023-07-08T04:47:43;24.50;50.20
11491;DHT22;5802;52.832;4.758;2023-07-08T04:50:12;24.50;50.20
11491;DHT22;5802;52.832;4.758;2023-07-08T04:52:39;24.50;50.30
11491;DHT22;5802;52.832;4.758;2023-07-08T04:55:06;24.50;50.40
11491;DHT22;5802;52.832;4.758;2023-07-08T04:57:34;24.50;50.40
11491;DHT22;5802;52.832;4.758;2023-07-08T05:00:02;24.50;50.50
11491;DHT22;5802;52.832;4.758;2023-07-08T05:02:32;24.50;50.60
11491;DHT22;5802;52.832;4.758;2023-07-08T05:05:01;24.50;50.70
11491;DHT22;5802;52.832;4.758;2023-07-08T05:07:27;24.50;50.80
11491;DHT22;5802;52.832;4.758;2023-07-08T05:09:54;24.50;50.80
11491;DHT22;5802;52.832;4.758;2023-07-08T05:12:21;24.50;50.90
11491;DHT22;5802;52.832;4.758;2023-07-08T05:14:48;24.40;50.90
11491;DHT22;5802;52.832;4.758;2023-07-08T05:17:14;24.40;50.90
11491;DHT22;5802;52.832;4.758;2023-07-08T05:19:41;24.40;51.00
11491;DHT22;5802;52.832;4.758;2023-07-08T05:22:12;24.50;51.10
11491;DHT22;5802;52.832;4.758;2023-07-08T05:24:38;24.50;51.10
11491;DHT22;5802;52.832;4.758;2023-07-08T05:27:05;24.50;51.10
11491;DHT22;5802;52.832;4.758;2023-07-08T05:29:32;24.40;51.10
11491;DHT22;5802;52.832;4.758;2023-07-08T05:31:59;24.40;51.10
11491;DHT22;5802;52.832;4.758;2023-07-08T05:34:25;24.50;51.00
11491;DHT22;5802;52.832;4.758;2023-07-08T05:36:52;24.50;51.00
11491;DHT22;5802;52.832;4.758;2023-07-08T05:39:20;24.50;51.10
11491;DHT22;5802;52.832;4.758;2023-07-08T05:41:47;24.50;51.20
11491;DHT22;5802;52.832;4.758;2023-07-08T05:44:14;24.50;51.20
11491;DHT22;5802;52.832;4.758;2023-07-08T05:46:40;24.50;51.10
11491;DHT22;5802;52.832;4.758;2023-07-08T05:49:07;24.50;51.10
11491;DHT22;5802;52.832;4.758;2023-07-08T05:51:36;24.50;51.20
11491;DHT22;5802;52.832;4.758;2023-07-08T05:54:04;24.50;51.10
11491;DHT22;5802;52.832;4.758;2023-07-08T05:56:32;24.50;51.10
11491;DHT22;5802;52.832;4.758;2023-07-08T05:58:58;24.50;51.10
11491;DHT22;5802;52.832;4.758;2023-07-08T06:01:25;24.50;51.10
11491;DHT22;5802;52.832;4.758;2023-07-08T06:03:52;24.50;51.10
11491;DHT22;5802;52.832;4.758;2023-07-08T06:06:21;24.60;51.00
11491;DHT22;5802;52.832;4.758;2023-07-08T06:08:48;24.60;51.00
11491;DHT22;5802;52.832;4.758;2023-07-08T06:11:15;24.60;51.00
11491;DHT22;5802;52.832;4.758;2023-07-08T06:13:43;24.60;51.00
11491;DHT22;5802;52.832;4.758;2023-07-08T06:16:10;24.70;51.00
11491;DHT22;5802;52.832;4.758;2023-07-08T06:18:37;24.70;50.90
11491;DHT22;5802;52.832;4.758;2023-07-08T06:21:05;24.70;50.80
11491;DHT22;5802;52.832;4.758;2023-07-08T06:23:31;24.70;51.40
11491;DHT22;5802;52.832;4.758;2023-07-08T06:25:58;24.80;50.70
11491;DHT22;5802;52.832;4.758;2023-07-08T06:28:25;24.80;50.70
11491;DHT22;5802;52.832;4.758;2023-07-08T06:30:53;24.80;50.60
11491;DHT22;5802;52.832;4.758;2023-07-08T06:33:19;24.90;50.60
11491;DHT22;5802;52.832;4.758;2023-07-08T06:35:46;24.90;50.60
11491;DHT22;5802;52.832;4.758;2023-07-08T06:38:13;24.90;50.50
11491;DHT22;5802;52.832;4.758;2023-07-08T06:40:40;25.00;50.50
11491;DHT22;5802;52.832;4.758;2023-07-08T06:43:06;25.00;50.40
11491;DHT22;5802;52.832;4.758;2023-07-08T06:45:33;25.00;50.40
11491;DHT22;5802;52.832;4.758;2023-07-08T06:48:01;25.10;50.50
11491;DHT22;5802;52.832;4.758;2023-07-08T06:50:28;25.10;50.30
11491;DHT22;5802;52.832;4.758;2023-07-08T06:52:55;25.20;50.40
11491;DHT22;5802;52.832;4.758;2023-07-08T06:55:21;25.20;50.30
11491;DHT22;5802;52.832;4.758;2023-07-08T06:57:48;25.20;50.10
11491;DHT22;5802;52.832;4.758;2023-07-08T07:00:15;25.30;50.10
11491;DHT22;5802;52.832;4.758;2023-07-08T07:02:42;25.30;50.10
11491;DHT22;5802;52.832;4.758;2023-07-08T07:05:10;25.30;50.00
11491;DHT22;5802;52.832;4.758;2023-07-08T07:07:37;25.40;50.10
11491;DHT22;5802;52.832;4.758;2023-07-08T07:10:04;25.40;49.90
11491;DHT22;5802;52.832;4.758;2023-07-08T07:12:34;25.50;49.80
11491;DHT22;5802;52.832;4.758;2023-07-08T07:15:07;25.50;49.70
11491;DHT22;5802;52.832;4.758;2023-07-08T07:17:34;25.50;49.60
11491;DHT22;5802;52.832;4.758;2023-07-08T07:20:02;25.60;49.60
11491;DHT22;5802;52.832;4.758;2023-07-08T07:22:30;25.60;49.50
11491;DHT22;5802;52.832;4.758;2023-07-08T07:24:58;25.60;49.50
11491;DHT22;5802;52.832;4.758;2023-07-08T07:27:25;25.70;49.50
11491;DHT22;5802;52.832;4.758;2023-07-08T07:29:52;25.80;49.40
11491;DHT22;5802;52.832;4.758;2023-07-08T07:32:22;25.80;49.40
11491;DHT22;5802;52.832;4.758;2023-07-08T07:34:50;25.80;49.30
11491;DHT22;5802;52.832;4.758;2023-07-08T07:37:18;25.80;49.10
11491;DHT22;5802;52.832;4.758;2023-07-08T07:39:47;25.90;49.10
11491;DHT22;5802;52.832;4.758;2023-07-08T07:42:15;25.90;49.00
11491;DHT22;5802;52.832;4.758;2023-07-08T07:44:42;26.00;49.00
11491;DHT22;5802;52.832;4.758;2023-07-08T07:47:09;26.00;48.90
11491;DHT22;5802;52.832;4.758;2023-07-08T07:49:36;26.10;48.80
11491;DHT22;5802;52.832;4.758;2023-07-08T07:52:04;26.10;48.70
11491;DHT22;5802;52.832;4.758;2023-07-08T07:54:31;26.10;48.60
11491;DHT22;5802;52.832;4.758;2023-07-08T07:56:59;26.20;48.60
11491;DHT22;5802;52.832;4.758;2023-07-08T07:59:26;26.20;48.50
11491;DHT22;5802;52.832;4.758;2023-07-08T08:01:53;26.30;48.40
11491;DHT22;5802;52.832;4.758;2023-07-08T08:04:19;26.30;48.30
11491;DHT22;5802;52.832;4.758;2023-07-08T08:06:47;26.30;48.40
11491;DHT22;5802;52.832;4.758;2023-07-08T08:09:13;26.40;48.30
11491;DHT22;5802;52.832;4.758;2023-07-08T08:11:40;26.50;48.30
11491;DHT22;5802;52.832;4.758;2023-07-08T08:14:08;26.50;48.20
11491;DHT22;5802;52.832;4.758;2023-07-08T08:16:35;26.50;48.10
11491;DHT22;5802;52.832;4.758;2023-07-08T08:19:03;26.60;48.00
11491;DHT22;5802;52.832;4.758;2023-07-08T08:21:29;26.60;47.80
11491;DHT22;5802;52.832;4.758;2023-07-08T08:23:56;26.60;47.80
11491;DHT22;5802;52.832;4.758;2023-07-08T08:26:24;26.70;47.80
11491;DHT22;5802;52.832;4.758;2023-07-08T08:28:50;26.70;47.70
11491;DHT22;5802;52.832;4.758;2023-07-08T08:31:18;26.80;47.60
11491;DHT22;5802;52.832;4.758;2023-07-08T08:33:45;26.80;47.50
11491;DHT22;5802;52.832;4.758;2023-07-08T08:36:12;26.90;47.50
11491;DHT22;5802;52.832;4.758;2023-07-08T08:38:39;26.90;47.40
11491;DHT22;5802;52.832;4.758;2023-07-08T08:41:11;27.00;47.30
11491;DHT22;5802;52.832;4.758;2023-07-08T08:43:39;27.00;47.20
11491;DHT22;5802;52.832;4.758;2023-07-08T08:46:12;27.00;47.10
11491;DHT22;5802;52.832;4.758;2023-07-08T08:48:55;27.10;47.10
11491;DHT22;5802;52.832;4.758;2023-07-08T08:51:25;27.10;47.00
11491;DHT22;5802;52.832;4.758;2023-07-08T08:53:55;27.20;46.90
11491;DHT22;5802;52.832;4.758;2023-07-08T08:56:24;27.20;46.90
11491;DHT22;5802;52.832;4.758;2023-07-08T08:58:57;27.30;46.90
11491;DHT22;5802;52.832;4.758;2023-07-08T09:01:25;27.30;46.80
11491;DHT22;5802;52.832;4.758;2023-07-08T09:03:56;27.40;46.70
11491;DHT22;5802;52.832;4.758;2023-07-08T09:06:25;27.40;46.60
11491;DHT22;5802;52.832;4.758;2023-07-08T09:08:54;27.40;46.60
11491;DHT22;5802;52.832;4.758;2023-07-08T09:11:32;27.50;46.50
11491;DHT22;5802;52.832;4.758;2023-07-08T09:14:03;27.50;46.50
11491;DHT22;5802;52.832;4.758;2023-07-08T09:16:39;27.60;46.50
11491;DHT22;5802;52.832;4.758;2023-07-08T09:19:28;27.60;46.40
11491;DHT22;5802;52.832;4.758;2023-07-08T09:22:01;27.60;46.40
11491;DHT22;5802;52.832;4.758;2023-07-08T09:24:33;27.60;46.30
11491;DHT22;5802;52.832;4.758;2023-07-08T09:27:07;27.70;46.40
11491;DHT22;5802;52.832;4.758;2023-07-08T09:29:34;27.70;46.30
11491;DHT22;5802;52.832;4.758;2023-07-08T09:32:14;27.70;46.30
11491;DHT22;5802;52.832;4.758;2023-07-08T09:34:46;27.80;46.30
11491;DHT22;5802;52.832;4.758;2023-07-08T09:37:32;27.80;46.30
11491;DHT22;5802;52.832;4.758;2023-07-08T09:40:00;27.80;46.40
11491;DHT22;5802;52.832;4.758;2023-07-08T09:42:33;27.90;46.50
11491;DHT22;5802;52.832;4.758;2023-07-08T09:45:10;27.90;46.50
11491;DHT22;5802;52.832;4.758;2023-07-08T09:47:37;27.90;46.40
11491;DHT22;5802;52.832;4.758;2023-07-08T09:50:17;27.90;46.40
11491;DHT22;5802;52.832;4.758;2023-07-08T09:52:48;27.90;46.30
11491;DHT22;5802;52.832;4.758;2023-07-08T09:55:18;28.00;46.30
11491;DHT22;5802;52.832;4.758;2023-07-08T09:57:50;28.00;46.20
11491;DHT22;5802;52.832;4.758;2023-07-08T10:00:25;28.00;46.20
11491;DHT22;5802;52.832;4.758;2023-07-08T10:02:55;28.00;46.20
11491;DHT22;5802;52.832;4.758;2023-07-08T10:05:27;28.00;46.20
11491;DHT22;5802;52.832;4.758;2023-07-08T10:07:57;28.10;46.30
11491;DHT22;5802;52.832;4.758;2023-07-08T10:10:40;28.10;46.90
11491;DHT22;5802;52.832;4.758;2023-07-08T10:13:17;28.10;46.30
11491;DHT22;5802;52.832;4.758;2023-07-08T10:15:49;28.10;46.30
11491;DHT22;5802;52.832;4.758;2023-07-08T10:18:23;28.10;46.40
11491;DHT22;5802;52.832;4.758;2023-07-08T10:20:57;28.10;46.70
11491;DHT22;5802;52.832;4.758;2023-07-08T10:23:34;28.10;46.50
11491;DHT22;5802;52.832;4.758;2023-07-08T10:26:10;28.10;46.60
11491;DHT22;5802;52.832;4.758;2023-07-08T10:28:44;28.10;46.70
11491;DHT22;5802;52.832;4.758;2023-07-08T10:31:20;28.10;46.90
11491;DHT22;5802;52.832;4.758;2023-07-08T10:34:03;28.10;47.00
11491;DHT22;5802;52.832;4.758;2023-07-08T10:36:42;28.10;47.10
11491;DHT22;5802;52.832;4.758;2023-07-08T10:39:44;28.00;47.20
11491;DHT22;5802;52.832;4.758;2023-07-08T10:42:28;28.00;47.50
11491;DHT22;5802;52.832;4.758;2023-07-08T10:45:05;28.00;47.70
11491;DHT22;5802;52.832;4.758;2023-07-08T10:47:43;27.90;47.70
11491;DHT22;5802;52.832;4.758;2023-07-08T10:50:26;27.90;47.80
11491;DHT22;5802;52.832;4.758;2023-07-08T10:53:03;27.90;47.90
11491;DHT22;5802;52.832;4.758;2023-07-08T10:55:42;27.90;48.00
11491;DHT22;5802;52.832;4.758;2023-07-08T10:58:38;27.90;48.10
11491;DHT22;5802;52.832;4.758;2023-07-08T11:01:22;27.80;48.10
11491;DHT22;5802;52.832;4.758;2023-07-08T11:04:15;27.80;48.40
11491;DHT22;5802;52.832;4.758;2023-07-08T11:06:49;27.80;48.50
11491;DHT22;5802;52.832;4.758;2023-07-08T11:09:24;27.80;48.70
11491;DHT22;5802;52.832;4.758;2023-07-08T11:11:56;27.70;48.70
11491;DHT22;5802;52.832;4.758;2023-07-08T11:14:27;27.70;49.00
11491;DHT22;5802;52.832;4.758;2023-07-08T11:17:10;27.70;49.10
11491;DHT22;5802;52.832;4.758;2023-07-08T11:19:45;27.70;49.20
11491;DHT22;5802;52.832;4.758;2023-07-08T11:22:15;27.70;49.30
11491;DHT22;5802;52.832;4.758;2023-07-08T11:24:46;27.70;49.30
11491;DHT22;5802;52.832;4.758;2023-07-08T11:27:16;27.70;49.20
11491;DHT22;5802;52.832;4.758;2023-07-08T11:29:51;27.70;49.20
11491;DHT22;5802;52.832;4.758;2023-07-08T11:32:21;27.70;49.10
11491;DHT22;5802;52.832;4.758;2023-07-08T11:34:50;27.70;49.30
11491;DHT22;5802;52.832;4.758;2023-07-08T11:37:19;27.70;49.30
11491;DHT22;5802;52.832;4.758;2023-07-08T11:39:54;27.70;49.60
11491;DHT22;5802;52.832;4.758;2023-07-08T11:42:23;27.70;49.80
11491;DHT22;5802;52.832;4.758;2023-07-08T11:44:54;27.70;49.70
11491;DHT22;5802;52.832;4.758;2023-07-08T11:47:25;27.70;49.70
11491;DHT22;5802;52.832;4.758;2023-07-08T11:49:53;27.70;49.80
11491;DHT22;5802;52.832;4.758;2023-07-08T11:52:22;27.70;50.00
11491;DHT22;5802;52.832;4.758;2023-07-08T11:54:59;27.70;49.80
11491;DHT22;5802;52.832;4.758;2023-07-08T11:57:30;27.70;49.60
11491;DHT22;5802;52.832;4.758;2023-07-08T12:00:17;27.70;49.50
11491;DHT22;5802;52.832;4.758;2023-07-08T12:02:49;27.70;49.80
11491;DHT22;5802;52.832;4.758;2023-07-08T12:05:16;27.70;50.00
11491;DHT22;5802;52.832;4.758;2023-07-08T12:07:46;27.70;50.20
11491;DHT22;5802;52.832;4.758;2023-07-08T12:10:17;27.70;50.50
11491;DHT22;5802;52.832;4.758;2023-07-08T12:12:45;27.70;50.60
11491;DHT22;5802;52.832;4.758;2023-07-08T12:15:16;27.70;50.40
11491;DHT22;5802;52.832;4.758;2023-07-08T12:17:44;27.70;50.50
11491;DHT22;5802;52.832;4.758;2023-07-08T12:20:19;27.70;50.60
11491;DHT22;5802;52.832;4.758;2023-07-08T12:22:47;27.70;50.40
11491;DHT22;5802;52.832;4.758;2023-07-08T12:25:18;27.70;50.60
11491;DHT22;5802;52.832;4.758;2023-07-08T12:27:46;27.70;50.50
11491;DHT22;5802;52.832;4.758;2023-07-08T12:30:15;27.70;50.40
11491;DHT22;5802;52.832;4.758;2023-07-08T12:32:42;27.70;50.40
11491;DHT22;5802;52.832;4.758;2023-07-08T12:35:19;27.80;50.30
11491;DHT22;5802;52.832;4.758;2023-07-08T12:37:47;27.80;50.60
11491;DHT22;5802;52.832;4.758;2023-07-08T12:40:15;27.80;50.50
11491;DHT22;5802;52.832;4.758;2023-07-08T12:42:42;27.80;50.60
11491;DHT22;5802;52.832;4.758;2023-07-08T12:45:14;27.80;50.70
11491;DHT22;5802;52.832;4.758;2023-07-08T12:47:42;27.80;50.60
11491;DHT22;5802;52.832;4.758;2023-07-08T12:50:09;27.80;50.80
11491;DHT22;5802;52.832;4.758;2023-07-08T12:52:36;27.80;50.90
11491;DHT22;5802;52.832;4.758;2023-07-08T12:55:03;27.90;50.90
11491;DHT22;5802;52.832;4.758;2023-07-08T12:57:31;27.80;50.90
11491;DHT22;5802;52.832;4.758;2023-07-08T13:00:00;27.90;50.90
11491;DHT22;5802;52.832;4.758;2023-07-08T13:02:29;27.90;51.80
11491;DHT22;5802;52.832;4.758;2023-07-08T13:05:00;27.90;51.10
11491;DHT22;5802;52.832;4.758;2023-07-08T13:07:34;27.90;51.10
11491;DHT22;5802;52.832;4.758;2023-07-08T13:10:02;27.90;51.10
11491;DHT22;5802;52.832;4.758;2023-07-08T13:12:33;28.00;51.10
11491;DHT22;5802;52.832;4.758;2023-07-08T13:15:02;28.00;51.10
11491;DHT22;5802;52.832;4.758;2023-07-08T13:17:29;28.00;51.10
11491;DHT22;5802;52.832;4.758;2023-07-08T13:19:57;28.00;51.10
11491;DHT22;5802;52.832;4.758;2023-07-08T13:22:24;28.10;51.10
11491;DHT22;5802;52.832;4.758;2023-07-08T13:24:59;28.10;51.00
11491;DHT22;5802;52.832;4.758;2023-07-08T13:27:26;28.10;50.90
11491;DHT22;5802;52.832;4.758;2023-07-08T13:29:56;28.20;51.10
11491;DHT22;5802;52.832;4.758;2023-07-08T13:32:31;28.20;51.00
11491;DHT22;5802;52.832;4.758;2023-07-08T13:34:58;28.20;51.00
11491;DHT22;5802;52.832;4.758;2023-07-08T13:37:24;28.30;51.00
11491;DHT22;5802;52.832;4.758;2023-07-08T13:39:53;28.30;50.80
11491;DHT22;5802;52.832;4.758;2023-07-08T13:42:20;28.30;50.60
11491;DHT22;5802;52.832;4.758;2023-07-08T13:44:48;28.40;50.50
11491;DHT22;5802;52.832;4.758;2023-07-08T13:47:27;28.40;50.40
11491;DHT22;5802;52.832;4.758;2023-07-08T13:49:59;28.40;50.40
11491;DHT22;5802;52.832;4.758;2023-07-08T13:52:27;28.50;50.30
11491;DHT22;5802;52.832;4.758;2023-07-08T13:54:58;28.50;50.20
11491;DHT22;5802;52.832;4.758;2023-07-08T13:57:31;28.60;50.20
11491;DHT22;5802;52.832;4.758;2023-07-08T13:59:58;28.60;50.00
11491;DHT22;5802;52.832;4.758;2023-07-08T14:02:29;28.70;50.20
11491;DHT22;5802;52.832;4.758;2023-07-08T14:04:58;28.70;50.10
11491;DHT22;5802;52.832;4.758;2023-07-08T14:07:28;28.80;50.10
11491;DHT22;5802;52.832;4.758;2023-07-08T14:09:54;28.80;49.80
11491;DHT22;5802;52.832;4.758;2023-07-08T14:12:22;28.80;49.60
11491;DHT22;5802;52.832;4.758;2023-07-08T14:14:49;28.80;49.50
11491;DHT22;5802;52.832;4.758;2023-07-08T14:17:19;28.90;49.40
11491;DHT22;5802;52.832;4.758;2023-07-08T14:19:48;28.90;49.20
11491;DHT22;5802;52.832;4.758;2023-07-08T14:22:23;28.90;49.10
11491;DHT22;5802;52.832;4.758;2023-07-08T14:24:50;29.00;49.00
11491;DHT22;5802;52.832;4.758;2023-07-08T14:27:17;29.00;48.90
11491;DHT22;5802;52.832;4.758;2023-07-08T14:29:47;29.10;48.90
11491;DHT22;5802;52.832;4.758;2023-07-08T14:32:16;29.10;48.70
11491;DHT22;5802;52.832;4.758;2023-07-08T14:34:49;29.10;48.60
11491;DHT22;5802;52.832;4.758;2023-07-08T14:37:16;29.20;48.50
11491;DHT22;5802;52.832;4.758;2023-07-08T14:39:43;29.20;48.50
11491;DHT22;5802;52.832;4.758;2023-07-08T14:42:12;29.20;48.40
11491;DHT22;5802;52.832;4.758;2023-07-08T14:44:40;29.30;48.30
11491;DHT22;5802;52.832;4.758;2023-07-08T14:47:09;29.30;48.30
11491;DHT22;5802;52.832;4.758;2023-07-08T14:49:38;29.30;48.20
11491;DHT22;5802;52.832;4.758;2023-07-08T14:52:07;29.30;48.10
11491;DHT22;5802;52.832;4.758;2023-07-08T14:54:34;29.40;48.10
11491;DHT22;5802;52.832;4.758;2023-07-08T14:57:01;29.40;48.00
11491;DHT22;5802;52.832;4.758;2023-07-08T14:59:31;29.40;47.90
11491;DHT22;5802;52.832;4.758;2023-07-08T15:01:59;29.40;47.90
11491;DHT22;5802;52.832;4.758;2023-07-08T15:04:27;29.50;47.90
11491;DHT22;5802;52.832;4.758;2023-07-08T15:06:54;29.50;47.90
11491;DHT22;5802;52.832;4.758;2023-07-08T15:09:25;29.50;47.90
11491;DHT22;5802;52.832;4.758;2023-07-08T15:11:51;29.50;47.80
11491;DHT22;5802;52.832;4.758;2023-07-08T15:14:19;29.50;47.80
11491;DHT22;5802;52.832;4.758;2023-07-08T15:16:47;29.50;47.80
11491;DHT22;5802;52.832;4.758;2023-07-08T15:19:14;29.50;47.80
11491;DHT22;5802;52.832;4.758;2023-07-08T15:21:40;29.50;47.70
11491;DHT22;5802;52.832;4.758;2023-07-08T15:24:09;29.60;47.80
11491;DHT22;5802;52.832;4.758;2023-07-08T15:26:37;29.60;47.70
11491;DHT22;5802;52.832;4.758;2023-07-08T15:29:05;29.50;47.70
11491;DHT22;5802;52.832;4.758;2023-07-08T15:31:34;29.50;47.70
11491;DHT22;5802;52.832;4.758;2023-07-08T15:34:01;29.60;47.80
11491;DHT22;5802;52.832;4.758;2023-07-08T15:36:27;29.60;47.70
11491;DHT22;5802;52.832;4.758;2023-07-08T15:38:54;29.60;47.80
11491;DHT22;5802;52.832;4.758;2023-07-08T15:41:23;29.60;47.70
11491;DHT22;5802;52.832;4.758;2023-07-08T15:43:53;29.60;47.70
11491;DHT22;5802;52.832;4.758;2023-07-08T15:46:20;29.70;47.70
11491;DHT22;5802;52.832;4.758;2023-07-08T15:48:47;29.70;47.60
11491;DHT22;5802;52.832;4.758;2023-07-08T15:51:15;29.70;47.60
11491;DHT22;5802;52.832;4.758;2023-07-08T15:53:42;29.70;47.60
11491;DHT22;5802;52.832;4.758;2023-07-08T15:56:10;29.70;47.50
11491;DHT22;5802;52.832;4.758;2023-07-08T15:58:38;29.70;47.50